Time;durP1;ratioP1;P1;durP2;ratioP2;P2;SDS_P1;SDS_P2;PMS_P1;PMS_P2;Temp;Humidity;BMP_temperature;BMP_pressure;BME280_temperature;BME280_humidity;BME280_pressure;Samples;Min_cycle;Max_cycle;Signal;HPM_P1;HPM_P2
2021/05/17 00:00:42;;;;;;;3.10;1.80;;;;;;;;;;5034161;28;20445;-82
2021/05/17 00:03:10;;;;;;;2.30;1.87;;;;;;;;;;5051436;28;20540;-79
2021/05/17 00:05:37;;;;;;;2.70;2.27;;;;;;;;;;5035724;28;20466;-80
2021/05/17 00:08:04;;;;;;;3.03;1.70;;;;;;;;;;5034179;28;20509;-80
2021/05/17 00:10:31;;;;;;;2.77;2.00;;;;;;;;;;5033934;28;20848;-79
2021/05/17 00:12:58;;;;;;;3.90;2.10;;;;;;;;;;5034302;28;20535;-80
2021/05/17 00:15:25;;;;;;;2.00;1.80;;;;;;;;;;5039521;28;20456;-79
2021/05/17 00:17:54;;;;;;;3.00;1.87;;;;;;;;;;5028907;28;20448;-79
2021/05/17 00:20:23;;;;;;;1.83;1.70;;;;;;;;;;5051592;28;20449;-82
2021/05/17 00:22:50;;;;;;;3.60;2.00;;;;;;;;;;5033601;28;20560;-81
2021/05/17 00:25:22;;;;;;;3.80;2.60;;;;;;;;;;5051115;28;20452;-81
2021/05/17 00:27:49;;;;;;;3.73;1.93;;;;;;;;;;5018184;28;20466;-81
2021/05/17 00:30:17;;;;;;;2.10;1.90;;;;;;;;;;5033866;28;20931;-81
2021/05/17 00:32:44;;;;;;;2.17;1.97;;;;;;;;;;5033575;28;20486;-80
2021/05/17 00:35:11;;;;;;;2.13;1.93;;;;;;;;;;5034296;28;20437;-79
2021/05/17 00:37:39;;;;;;;2.00;1.57;;;;;;;;;;5038994;28;20449;-81
2021/05/17 00:40:07;;;;;;;2.20;1.60;;;;;;;;;;5033685;28;20465;-79
2021/05/17 00:42:34;;;;;;;1.87;1.60;;;;;;;;;;5031293;28;20469;-79
2021/05/17 00:45:02;;;;;;;1.97;1.77;;;;;;;;;;5031092;28;20469;-79
2021/05/17 00:47:29;;;;;;;1.97;1.67;;;;;;;;;;5030967;28;20544;-80
2021/05/17 00:49:57;;;;;;;1.63;1.53;;;;;;;;;;5033185;28;20461;-79
2021/05/17 00:52:26;;;;;;;2.53;1.70;;;;;;;;;;5033293;28;20564;-79
2021/05/17 00:54:55;;;;;;;2.07;1.40;;;;;;;;;;5033605;28;20496;-78
2021/05/17 00:57:21;;;;;;;1.90;1.70;;;;;;;;;;5035450;28;20454;-80
2021/05/17 00:59:48;;;;;;;3.80;1.70;;;;;;;;;;5040972;28;20441;-79
2021/05/17 01:02:15;;;;;;;3.13;2.53;;;;;;;;;;5047074;28;20453;-80
2021/05/17 01:04:42;;;;;;;2.00;1.80;;;;;;;;;;5056550;28;20451;-80
2021/05/17 01:07:09;;;;;;;3.20;1.60;;;;;;;;;;5057731;28;20498;-79
2021/05/17 01:09:37;;;;;;;2.87;1.97;;;;;;;;;;5057249;28;20448;-81
2021/05/17 01:12:06;;;;;;;2.60;2.10;;;;;;;;;;5040925;28;20485;-81
2021/05/17 01:14:34;;;;;;;4.20;3.00;;;;;;;;;;5039764;28;20449;-81
2021/05/17 01:17:01;;;;;;;2.33;2.13;;;;;;;;;;5039646;28;20477;-81
2021/05/17 01:19:33;;;;;;;3.03;2.13;;;;;;;;;;5040636;28;20801;-80
2021/05/17 01:22:08;;;;;;;2.83;2.00;;;;;;;;;;5044955;28;20450;-80
2021/05/17 01:24:37;;;;;;;2.43;1.60;;;;;;;;;;5039318;28;20487;-79
2021/05/17 01:27:04;;;;;;;2.20;1.60;;;;;;;;;;5037312;28;20441;-79
2021/05/17 01:29:31;;;;;;;1.50;1.27;;;;;;;;;;5037374;28;20443;-80
2021/05/17 01:31:59;;;;;;;1.63;1.30;;;;;;;;;;5037024;28;20492;-79
2021/05/17 01:34:26;;;;;;;1.80;1.50;;;;;;;;;;5019776;28;20438;-80
2021/05/17 01:36:53;;;;;;;2.03;1.77;;;;;;;;;;5019842;28;20442;-80
2021/05/17 01:39:23;;;;;;;1.60;1.23;;;;;;;;;;5019803;28;20450;-80
2021/05/17 01:41:52;;;;;;;2.73;1.33;;;;;;;;;;5010960;28;20449;-81
2021/05/17 01:44:22;;;;;;;1.73;1.50;;;;;;;;;;5044659;28;20433;-81
2021/05/17 01:46:50;;;;;;;2.00;1.47;;;;;;;;;;5037789;28;20958;-80
2021/05/17 01:49:18;;;;;;;1.90;1.40;;;;;;;;;;5019610;28;20453;-80
2021/05/17 01:51:45;;;;;;;3.93;1.70;;;;;;;;;;5019602;28;20994;-81
2021/05/17 01:54:13;;;;;;;2.17;1.37;;;;;;;;;;5018630;28;20493;-82
2021/05/17 01:56:40;;;;;;;1.47;1.17;;;;;;;;;;5043792;28;20446;-83
2021/05/17 01:59:09;;;;;;;1.77;0.90;;;;;;;;;;5042304;28;20498;-81
2021/05/17 02:01:35;;;;;;;1.53;1.27;;;;;;;;;;5019473;28;20536;-80
2021/05/17 02:04:02;;;;;;;2.10;1.20;;;;;;;;;;5036772;28;20448;-84
2021/05/17 02:06:29;;;;;;;3.30;1.40;;;;;;;;;;5036980;28;20967;-81
2021/05/17 02:08:56;;;;;;;1.40;1.30;;;;;;;;;;5020584;28;20465;-81
2021/05/17 02:11:24;;;;;;;1.87;1.20;;;;;;;;;;5039191;28;20977;-84
2021/05/17 02:13:51;;;;;;;1.43;1.33;;;;;;;;;;5039294;28;20464;-81
2021/05/17 02:16:19;;;;;;;1.40;1.20;;;;;;;;;;5018038;28;20799;-81
2021/05/17 02:18:47;;;;;;;4.00;1.40;;;;;;;;;;5040130;28;20831;-82
2021/05/17 02:21:14;;;;;;;1.37;1.27;;;;;;;;;;5044252;28;20501;-80
2021/05/17 02:23:41;;;;;;;2.50;1.23;;;;;;;;;;5053336;28;20464;-82
2021/05/17 02:26:08;;;;;;;3.90;1.47;;;;;;;;;;5053578;28;20967;-82
2021/05/17 02:28:37;;;;;;;1.30;1.17;;;;;;;;;;5053466;28;20433;-81
2021/05/17 02:31:04;;;;;;;1.40;1.20;;;;;;;;;;5026873;28;20457;-83
2021/05/17 02:33:32;;;;;;;1.30;1.20;;;;;;;;;;5035810;28;20469;-83
2021/05/17 02:54:04;;;;;;;3.43;1.70;;;;;;;;;;5090595;23;20454;-81
2021/05/17 02:56:35;;;;;;;1.23;1.13;;;;;;;;;;5023281;28;20560;-80
2021/05/17 02:59:03;;;;;;;1.47;1.30;;;;;;;;;;5030815;28;20942;-82
2021/05/17 03:01:36;;;;;;;1.83;1.50;;;;;;;;;;5033257;28;20438;-81
2021/05/17 03:04:07;;;;;;;3.17;1.73;;;;;;;;;;5032943;28;20552;-80
2021/05/17 03:06:35;;;;;;;1.50;1.40;;;;;;;;;;5023624;28;20806;-81
2021/05/17 03:09:05;;;;;;;2.80;1.70;;;;;;;;;;5017121;28;20441;-81
2021/05/17 03:11:32;;;;;;;4.87;1.70;;;;;;;;;;5009039;28;20482;-81
2021/05/17 03:14:01;;;;;;;1.97;1.57;;;;;;;;;;5009601;28;21025;-80
2021/05/17 03:16:29;;;;;;;1.63;1.50;;;;;;;;;;5010606;28;20449;-82
2021/05/17 03:18:56;;;;;;;1.60;1.50;;;;;;;;;;5018537;28;20540;-80
2021/05/17 03:21:24;;;;;;;4.40;1.67;;;;;;;;;;5031507;28;20934;-81
2021/05/17 03:23:52;;;;;;;2.37;1.80;;;;;;;;;;5031380;28;20442;-81
2021/05/17 03:26:20;;;;;;;1.60;1.20;;;;;;;;;;5032341;28;20473;-81
2021/05/17 03:28:47;;;;;;;1.97;1.73;;;;;;;;;;5022793;28;20435;-80
2021/05/17 03:31:14;;;;;;;2.00;1.40;;;;;;;;;;5018777;28;20439;-82
2021/05/17 03:33:41;;;;;;;1.73;1.30;;;;;;;;;;5029598;28;20496;-80
2021/05/17 03:36:08;;;;;;;1.70;1.47;;;;;;;;;;5028438;28;20930;-79
2021/05/17 03:38:35;;;;;;;2.70;1.50;;;;;;;;;;5029676;28;20438;-80
2021/05/17 03:41:02;;;;;;;3.50;2.00;;;;;;;;;;5030936;28;20454;-80
2021/05/17 03:43:29;;;;;;;6.83;1.83;;;;;;;;;;5032453;28;20450;-82
2021/05/17 03:45:56;;;;;;;1.97;1.50;;;;;;;;;;5032150;28;20461;-82
2021/05/17 03:48:23;;;;;;;1.93;1.70;;;;;;;;;;5032088;28;20945;-80
2021/05/17 03:50:50;;;;;;;2.33;1.53;;;;;;;;;;5022719;28;20819;-81
2021/05/17 03:53:17;;;;;;;1.70;1.60;;;;;;;;;;5017750;28;20490;-81
2021/05/17 03:55:44;;;;;;;4.50;1.70;;;;;;;;;;5027842;28;20531;-81
2021/05/17 03:58:11;;;;;;;3.33;1.50;;;;;;;;;;5029624;28;20446;-82
2021/05/17 04:00:38;;;;;;;3.70;1.57;;;;;;;;;;5029312;28;20426;-81
2021/05/17 04:03:13;;;;;;;2.57;2.10;;;;;;;;;;5030651;28;20466;-81
2021/05/17 04:05:52;;;;;;;3.40;1.90;;;;;;;;;;5031751;28;20457;-82
2021/05/17 04:12:29;;;;;;;1.77;1.60;;;;;;;;;;5032020;28;20825;-82
2021/05/17 04:13:53;;;;;;;2.60;1.63;;;;;;;;;;5014017;28;20489;-79
2021/05/17 04:16:20;;;;;;;2.50;1.60;;;;;;;;;;5013100;28;20537;-81
2021/05/17 04:18:47;;;;;;;1.93;1.77;;;;;;;;;;5009965;28;20530;-81
2021/05/17 04:21:15;;;;;;;2.13;1.90;;;;;;;;;;5009746;28;20451;-82
2021/05/17 04:23:42;;;;;;;4.70;1.93;;;;;;;;;;5009498;28;20542;-80
2021/05/17 04:26:09;;;;;;;2.40;2.13;;;;;;;;;;5024703;28;20454;-81
2021/05/17 04:28:36;;;;;;;3.93;2.50;;;;;;;;;;5031721;28;20441;-80
2021/05/17 04:31:03;;;;;;;3.30;2.33;;;;;;;;;;5031404;28;20439;-80
2021/05/17 04:33:30;;;;;;;3.50;2.37;;;;;;;;;;5031415;28;20484;-81
2021/05/17 04:35:56;;;;;;;2.60;1.87;;;;;;;;;;5016710;28;21022;-80
2021/05/17 04:38:24;;;;;;;3.20;1.83;;;;;;;;;;5020291;28;20434;-83
2021/05/17 04:40:51;;;;;;;2.10;1.90;;;;;;;;;;5029181;28;20781;-80
2021/05/17 04:43:18;;;;;;;2.13;1.93;;;;;;;;;;5029185;28;20994;-80
2021/05/17 04:45:44;;;;;;;2.33;1.57;;;;;;;;;;5028765;28;20465;-79
2021/05/17 04:48:11;;;;;;;1.67;1.57;;;;;;;;;;5030318;28;20950;-79
2021/05/17 04:50:38;;;;;;;1.60;1.50;;;;;;;;;;5031287;28;21004;-80
2021/05/17 04:53:05;;;;;;;3.80;1.60;;;;;;;;;;5031020;28;20489;-81
2021/05/17 04:55:32;;;;;;;1.83;1.50;;;;;;;;;;5044407;28;20478;-81
2021/05/17 04:57:59;;;;;;;2.13;1.60;;;;;;;;;;5036994;28;20454;-81
2021/05/17 05:00:26;;;;;;;1.73;1.60;;;;;;;;;;5032501;28;20475;-80
2021/05/17 05:02:53;;;;;;;3.57;1.77;;;;;;;;;;5029150;28;20453;-80
2021/05/17 05:05:20;;;;;;;2.47;1.40;;;;;;;;;;5028748;28;20464;-83
2021/05/17 05:07:47;;;;;;;1.63;1.50;;;;;;;;;;5028706;28;20611;-81
2021/05/17 05:10:14;;;;;;;2.00;1.57;;;;;;;;;;5042444;28;20452;-82
2021/05/17 05:12:41;;;;;;;2.73;1.77;;;;;;;;;;5051091;28;20489;-81
2021/05/17 05:15:09;;;;;;;1.90;1.37;;;;;;;;;;5051155;28;20473;-80
2021/05/17 05:17:35;;;;;;;1.53;1.40;;;;;;;;;;5051017;28;20463;-80
2021/05/17 05:20:03;;;;;;;1.83;1.50;;;;;;;;;;5037419;28;20430;-81
2021/05/17 05:22:29;;;;;;;2.50;1.80;;;;;;;;;;5031188;28;20437;-80
2021/05/17 05:24:57;;;;;;;6.23;2.27;;;;;;;;;;5028564;28;20477;-80
2021/05/17 05:27:26;;;;;;;3.27;2.20;;;;;;;;;;5040278;28;20522;-80
2021/05/17 05:30:03;;;;;;;4.10;1.80;;;;;;;;;;5048117;28;20438;-79
2021/05/17 05:32:32;;;;;;;2.70;1.73;;;;;;;;;;5046817;28;20496;-81
2021/05/17 05:34:59;;;;;;;5.63;2.33;;;;;;;;;;5034524;28;20812;-81
2021/05/17 05:37:25;;;;;;;1.50;1.40;;;;;;;;;;5043334;28;20458;-81
2021/05/17 05:39:52;;;;;;;2.27;1.50;;;;;;;;;;5047075;28;20441;-82
2021/05/17 05:42:20;;;;;;;2.97;1.53;;;;;;;;;;5049267;28;20506;-80
2021/05/17 05:44:48;;;;;;;3.70;2.53;;;;;;;;;;5049452;28;20460;-81
2021/05/17 05:47:17;;;;;;;3.70;2.00;;;;;;;;;;5051087;28;20467;-80
2021/05/17 05:49:44;;;;;;;3.50;1.70;;;;;;;;;;5050923;28;20448;-81
2021/05/17 05:52:11;;;;;;;2.00;1.80;;;;;;;;;;5054004;28;20480;-83
2021/05/17 05:54:38;;;;;;;2.30;1.90;;;;;;;;;;5054080;28;20873;-80
2021/05/17 05:57:06;;;;;;;3.20;1.67;;;;;;;;;;5040411;28;20480;-84
2021/05/17 05:59:33;;;;;;;2.37;1.70;;;;;;;;;;5041726;28;20913;-78
2021/05/17 06:02:00;;;;;;;3.77;1.63;;;;;;;;;;5051952;28;20814;-79
2021/05/17 06:04:28;;;;;;;2.90;1.60;;;;;;;;;;5051680;28;20461;-77
2021/05/17 06:06:55;;;;;;;2.87;1.70;;;;;;;;;;5051446;28;21046;-78
2021/05/17 06:09:21;;;;;;;2.17;1.67;;;;;;;;;;5053910;28;20574;-85
2021/05/17 06:11:48;;;;;;;4.80;1.73;;;;;;;;;;5053772;28;20477;-85
2021/05/17 06:14:15;;;;;;;3.07;1.73;;;;;;;;;;5053612;28;20981;-82
2021/05/17 06:16:42;;;;;;;2.33;1.63;;;;;;;;;;5053051;28;20452;-82
2021/05/17 06:19:10;;;;;;;2.10;1.40;;;;;;;;;;5044497;28;20440;-83
2021/05/17 06:21:38;;;;;;;2.50;1.60;;;;;;;;;;5037446;28;20452;-82
2021/05/17 06:24:05;;;;;;;2.43;1.47;;;;;;;;;;5050552;28;20511;-83
2021/05/17 06:26:33;;;;;;;4.37;1.90;;;;;;;;;;5050732;28;20442;-82
2021/05/17 06:29:00;;;;;;;3.63;1.77;;;;;;;;;;5050306;28;20447;-83
2021/05/17 06:31:28;;;;;;;3.83;2.17;;;;;;;;;;5051444;28;20453;-82
2021/05/17 06:33:55;;;;;;;3.00;1.87;;;;;;;;;;5046644;28;20514;-81
2021/05/17 06:36:22;;;;;;;7.17;1.77;;;;;;;;;;5036520;28;20817;-81
2021/05/17 06:38:52;;;;;;;1.80;1.40;;;;;;;;;;5044636;28;20451;-81
2021/05/17 06:41:19;;;;;;;3.10;1.60;;;;;;;;;;5032619;28;20559;-83
2021/05/17 06:43:46;;;;;;;2.07;1.60;;;;;;;;;;5048687;28;20441;-82
2021/05/17 06:46:13;;;;;;;3.23;1.63;;;;;;;;;;5040776;28;20443;-81
2021/05/17 06:48:43;;;;;;;2.07;1.50;;;;;;;;;;5053985;28;20528;-81
2021/05/17 06:51:12;;;;;;;3.27;1.50;;;;;;;;;;5032021;28;20798;-81
2021/05/17 06:53:39;;;;;;;2.47;1.80;;;;;;;;;;5022659;28;20448;-81
2021/05/17 06:56:11;;;;;;;2.33;1.30;;;;;;;;;;5050584;28;20559;-81
2021/05/17 06:58:48;;;;;;;3.50;1.63;;;;;;;;;;5037340;28;20536;-81
2021/05/17 07:01:15;;;;;;;2.83;1.10;;;;;;;;;;5032421;28;20939;-81
2021/05/17 07:03:42;;;;;;;1.93;1.20;;;;;;;;;;5032408;28;20438;-82
2021/05/17 07:06:10;;;;;;;2.50;1.53;;;;;;;;;;5052142;28;20449;-81
2021/05/17 07:14:01;;;;;;;4.73;1.30;;;;;;;;;;5030773;28;20796;-82
2021/05/17 07:16:29;;;;;;;1.50;1.00;;;;;;;;;;5053120;28;20420;-80
2021/05/17 07:18:55;;;;;;;1.70;1.30;;;;;;;;;;5040853;28;20445;-80
2021/05/17 07:24:03;;;;;;;1.87;1.30;;;;;;;;;;5034809;28;20434;-80
2021/05/17 07:26:31;;;;;;;1.77;1.00;;;;;;;;;;5041359;28;20482;-81
2021/05/17 07:28:58;;;;;;;1.93;1.30;;;;;;;;;;5051575;28;20445;-83
2021/05/17 07:31:24;;;;;;;3.83;1.90;;;;;;;;;;5053099;28;20444;-81
2021/05/17 07:33:51;;;;;;;1.33;1.10;;;;;;;;;;5052944;28;20981;-82
2021/05/17 07:36:18;;;;;;;2.30;1.47;;;;;;;;;;5053049;28;20420;-81
2021/05/17 07:38:45;;;;;;;1.87;1.07;;;;;;;;;;5053717;28;20831;-82
2021/05/17 07:41:14;;;;;;;2.63;1.40;;;;;;;;;;5044909;28;20449;-84
2021/05/17 07:43:41;;;;;;;1.93;1.10;;;;;;;;;;5040925;28;20453;-82
2021/05/17 07:46:08;;;;;;;2.10;1.23;;;;;;;;;;5052464;28;20456;-82
2021/05/17 07:49:02;;;;;;;2.67;1.20;;;;;;;;;;5052666;28;20437;-82
2021/05/17 07:51:30;;;;;;;1.77;1.10;;;;;;;;;;5024286;28;20465;-82
2021/05/17 07:53:59;;;;;;;1.90;1.30;;;;;;;;;;5045458;28;20488;-83
2021/05/17 07:56:26;;;;;;;2.93;1.40;;;;;;;;;;5053554;28;20521;-81
2021/05/17 07:58:57;;;;;;;2.20;1.40;;;;;;;;;;5053893;28;20448;-81
2021/05/17 08:01:24;;;;;;;2.77;1.30;;;;;;;;;;5052965;28;20445;-81
2021/05/17 08:03:51;;;;;;;3.63;1.40;;;;;;;;;;5045037;28;20452;-80
2021/05/17 08:06:18;;;;;;;4.07;1.20;;;;;;;;;;5038141;28;20518;-81
2021/05/17 08:08:45;;;;;;;3.20;1.30;;;;;;;;;;5013485;28;20515;-82
2021/05/17 08:11:12;;;;;;;3.10;1.23;;;;;;;;;;5048707;28;20455;-82
2021/05/17 08:13:39;;;;;;;2.10;1.30;;;;;;;;;;5031909;28;20539;-80
2021/05/17 08:16:09;;;;;;;2.37;1.10;;;;;;;;;;5051471;28;20449;-82
2021/05/17 08:18:36;;;;;;;2.03;1.50;;;;;;;;;;5041736;28;20449;-81
2021/05/17 08:21:03;;;;;;;2.63;1.20;;;;;;;;;;5043667;28;20833;-80
2021/05/17 08:23:29;;;;;;;2.00;1.80;;;;;;;;;;5033698;28;20507;-79
2021/05/17 08:25:56;;;;;;;3.30;1.33;;;;;;;;;;5034036;28;20453;-84
2021/05/17 08:28:23;;;;;;;2.40;1.10;;;;;;;;;;5037866;28;20507;-82
2021/05/17 08:30:55;;;;;;;3.87;1.40;;;;;;;;;;5034338;28;21055;-81
2021/05/17 08:33:23;;;;;;;2.30;1.30;;;;;;;;;;5048620;28;20910;-82
2021/05/17 08:41:22;;;;;;;1.17;0.90;;;;;;;;;;5023749;28;20408;-83
2021/05/17 08:43:49;;;;;;;2.47;1.20;;;;;;;;;;5058514;28;20444;-83
2021/05/17 08:46:16;;;;;;;2.53;1.20;;;;;;;;;;5032175;28;20445;-83
2021/05/17 08:48:47;;;;;;;3.77;1.03;;;;;;;;;;5045756;28;20453;-81
2021/05/17 08:51:15;;;;;;;1.93;1.00;;;;;;;;;;5013248;28;20509;-81
2021/05/17 08:53:42;;;;;;;2.03;1.00;;;;;;;;;;5047328;28;20462;-82
2021/05/17 08:56:09;;;;;;;3.30;1.30;;;;;;;;;;5043868;28;20542;-83
2021/05/17 08:58:35;;;;;;;1.33;1.00;;;;;;;;;;5037842;28;20425;-81
2021/05/17 09:01:03;;;;;;;2.93;1.00;;;;;;;;;;5049429;28;20481;-82
2021/05/17 09:03:33;;;;;;;1.30;1.10;;;;;;;;;;5047548;28;20450;-83
2021/05/17 09:06:07;;;;;;;1.37;1.00;;;;;;;;;;5048442;28;20518;-82
2021/05/17 09:08:41;;;;;;;1.97;1.30;;;;;;;;;;5045362;28;20452;-82
2021/05/17 09:11:08;;;;;;;2.33;1.40;;;;;;;;;;5035637;28;20479;-85
2021/05/17 09:13:35;;;;;;;1.50;1.17;;;;;;;;;;5040067;28;20473;-83
2021/05/17 09:16:02;;;;;;;2.10;1.70;;;;;;;;;;5029431;28;20863;-84
2021/05/17 09:18:30;;;;;;;4.43;1.80;;;;;;;;;;5028705;28;20436;-79
2021/05/17 09:20:58;;;;;;;2.13;1.40;;;;;;;;;;5033827;28;20461;-80
2021/05/17 09:23:27;;;;;;;4.87;2.00;;;;;;;;;;5039624;28;20442;-82
2021/05/17 09:25:57;;;;;;;4.80;1.60;;;;;;;;;;5049664;28;20499;-81
2021/05/17 09:28:26;;;;;;;2.97;1.57;;;;;;;;;;5026309;28;20922;-81
2021/05/17 09:30:54;;;;;;;3.50;1.43;;;;;;;;;;5054461;28;20445;-81
2021/05/17 09:33:22;;;;;;;2.90;1.40;;;;;;;;;;5041161;28;20477;-80
2021/05/17 09:35:50;;;;;;;2.53;1.50;;;;;;;;;;5047627;28;20501;-81
2021/05/17 09:38:24;;;;;;;3.70;1.60;;;;;;;;;;5035867;28;20847;-81
2021/05/17 09:40:59;;;;;;;3.80;1.87;;;;;;;;;;5036465;28;20514;-81
2021/05/17 09:43:26;;;;;;;2.60;1.50;;;;;;;;;;5052955;28;20414;-79
2021/05/17 09:45:53;;;;;;;1.97;1.23;;;;;;;;;;5055157;28;20790;-80
2021/05/17 09:48:20;;;;;;;2.53;1.33;;;;;;;;;;5051854;28;20422;-77
2021/05/17 09:50:58;;;;;;;2.03;1.23;;;;;;;;;;5055926;28;20448;-83
2021/05/17 09:53:26;;;;;;;2.03;1.20;;;;;;;;;;5055444;28;20484;-82
2021/05/17 09:55:53;;;;;;;2.03;1.13;;;;;;;;;;5024314;28;20515;-80
2021/05/17 09:58:34;;;;;;;3.87;1.37;;;;;;;;;;5037852;28;20814;-83
2021/05/17 10:01:06;;;;;;;2.20;1.40;;;;;;;;;;5017747;28;20409;-82
2021/05/17 10:03:35;;;;;;;3.50;1.60;;;;;;;;;;5023357;28;20419;-82
2021/05/17 10:06:01;;;;;;;2.40;1.30;;;;;;;;;;5043953;28;20412;-82
2021/05/17 10:08:28;;;;;;;6.10;1.50;;;;;;;;;;5052947;28;20449;-81
2021/05/17 10:10:55;;;;;;;1.93;1.30;;;;;;;;;;5056098;28;20447;-84
2021/05/17 10:13:22;;;;;;;3.80;1.50;;;;;;;;;;5056476;28;20967;-85
2021/05/17 10:15:49;;;;;;;2.60;1.20;;;;;;;;;;5047786;28;20523;-86
2021/05/17 10:18:17;;;;;;;2.90;2.40;;;;;;;;;;5041382;28;20438;-87
2021/05/17 10:20:45;;;;;;;2.67;1.27;;;;;;;;;;5037976;28;20446;-84
2021/05/17 10:23:13;;;;;;;3.00;1.20;;;;;;;;;;5037269;28;20431;-85
2021/05/17 10:25:41;;;;;;;2.57;1.30;;;;;;;;;;5051469;28;20518;-85
2021/05/17 10:28:10;;;;;;;1.50;1.00;;;;;;;;;;5035390;28;20449;-83
2021/05/17 10:30:37;;;;;;;1.53;1.10;;;;;;;;;;5054267;28;20979;-83
2021/05/17 10:33:06;;;;;;;1.97;1.30;;;;;;;;;;5053610;28;20487;-84
2021/05/17 10:35:35;;;;;;;1.93;1.27;;;;;;;;;;5053008;28;20464;-83
2021/05/17 10:38:19;;;;;;;3.03;1.50;;;;;;;;;;5052848;28;20996;-82
2021/05/17 10:40:48;;;;;;;3.57;1.67;;;;;;;;;;5027887;28;20462;-83
2021/05/17 10:43:21;;;;;;;2.73;1.20;;;;;;;;;;5041598;28;20835;-82
2021/05/17 10:48:29;;;;;;;1.97;1.10;;;;;;;;;;1432927;26;20487;-81
2021/05/17 11:21:44;;;;;;;1.87;1.00;;;;;;;;;;5041049;28;21014;-82
2021/05/17 11:24:14;;;;;;;1.90;0.93;;;;;;;;;;5051188;28;20461;-81
2021/05/17 11:26:58;;;;;;;1.53;1.07;;;;;;;;;;5040217;28;20458;-82
2021/05/17 11:29:32;;;;;;;1.97;1.00;;;;;;;;;;5036897;28;20427;-82
2021/05/17 11:32:14;;;;;;;1.57;0.90;;;;;;;;;;5036496;28;20777;-83
2021/05/17 11:34:56;;;;;;;2.13;0.90;;;;;;;;;;5041702;28;20431;-80
2021/05/17 11:37:24;;;;;;;2.07;1.00;;;;;;;;;;5054240;28;20419;-82
2021/05/17 11:39:50;;;;;;;1.57;1.10;;;;;;;;;;5053775;28;20560;-82
2021/05/17 11:42:19;;;;;;;1.20;1.00;;;;;;;;;;5038396;28;20453;-82
2021/05/17 11:44:54;;;;;;;1.10;0.90;;;;;;;;;;5035035;28;20857;-81
2021/05/17 11:47:21;;;;;;;1.40;1.03;;;;;;;;;;5036455;28;20441;-82
2021/05/17 11:49:52;;;;;;;1.30;0.90;;;;;;;;;;5030159;28;20459;-83
2021/05/17 11:52:20;;;;;;;1.70;1.10;;;;;;;;;;5028005;28;20448;-83
2021/05/17 11:54:50;;;;;;;1.13;0.90;;;;;;;;;;5032536;28;20492;-83
2021/05/17 11:57:18;;;;;;;1.33;1.00;;;;;;;;;;5034620;28;20420;-82
2021/05/17 11:59:47;;;;;;;3.53;1.40;;;;;;;;;;5047137;28;20445;-82
2021/05/17 12:02:14;;;;;;;1.20;0.90;;;;;;;;;;5051658;28;20848;-82
2021/05/17 12:04:42;;;;;;;2.53;1.20;;;;;;;;;;5036941;28;20632;-83
2021/05/17 12:07:09;;;;;;;4.50;1.10;;;;;;;;;;5022099;28;20434;-84
2021/05/17 12:09:38;;;;;;;2.13;1.17;;;;;;;;;;5049836;28;20463;-83
2021/05/17 12:12:08;;;;;;;2.33;1.20;;;;;;;;;;5047222;28;20464;-83
2021/05/17 12:14:35;;;;;;;2.90;1.20;;;;;;;;;;5050755;28;20457;-82
2021/05/17 12:17:04;;;;;;;1.20;0.90;;;;;;;;;;5025510;28;20476;-82
2021/05/17 12:19:31;;;;;;;2.60;1.30;;;;;;;;;;5021181;28;20448;-82
2021/05/17 12:21:59;;;;;;;2.33;1.07;;;;;;;;;;5047815;28;20507;-83
2021/05/17 12:24:28;;;;;;;1.90;1.20;;;;;;;;;;5053204;28;20760;-82
2021/05/17 12:26:57;;;;;;;2.30;1.10;;;;;;;;;;5046215;28;20536;-82
2021/05/17 12:29:25;;;;;;;1.60;1.07;;;;;;;;;;5038376;28;20425;-81
2021/05/17 12:31:52;;;;;;;1.30;1.00;;;;;;;;;;5049765;28;20445;-81
2021/05/17 12:34:20;;;;;;;1.70;1.20;;;;;;;;;;5049968;28;20467;-83
2021/05/17 12:36:48;;;;;;;1.47;1.00;;;;;;;;;;5049892;28;20441;-80
2021/05/17 12:39:16;;;;;;;1.13;0.90;;;;;;;;;;5049921;28;20476;-80
2021/05/17 12:41:44;;;;;;;2.10;1.10;;;;;;;;;;5033091;28;20487;-82
2021/05/17 12:44:25;;;;;;;1.43;1.20;;;;;;;;;;5050943;28;20500;-80
2021/05/17 12:47:02;;;;;;;1.70;1.13;;;;;;;;;;5048684;28;20407;-82
2021/05/17 12:49:42;;;;;;;1.93;1.23;;;;;;;;;;5033974;28;20505;-83
2021/05/17 12:52:09;;;;;;;2.03;1.50;;;;;;;;;;5020268;28;20556;-82
2021/05/17 12:54:36;;;;;;;3.80;1.90;;;;;;;;;;5031378;28;20548;-84
2021/05/17 12:57:06;;;;;;;3.20;1.90;;;;;;;;;;5046331;28;20520;-82
2021/05/17 12:59:44;;;;;;;3.67;2.03;;;;;;;;;;5049859;28;20862;-82
2021/05/17 13:02:12;;;;;;;2.13;1.70;;;;;;;;;;5032433;28;20964;-81
2021/05/17 13:04:39;;;;;;;2.97;1.93;;;;;;;;;;5051878;28;20461;-80
2021/05/17 13:07:07;;;;;;;3.33;2.30;;;;;;;;;;5052299;28;20823;-81
2021/05/17 13:09:34;;;;;;;4.07;2.43;;;;;;;;;;5052139;28;20484;-80
2021/05/17 13:12:01;;;;;;;2.93;1.80;;;;;;;;;;5031466;28;20543;-80
2021/05/17 13:14:28;;;;;;;2.73;2.10;;;;;;;;;;5019182;28;20807;-80
2021/05/17 13:17:00;;;;;;;2.70;2.17;;;;;;;;;;5045962;28;20471;-80
2021/05/17 13:19:35;;;;;;;3.30;1.90;;;;;;;;;;5049339;28;20835;-81
2021/05/17 13:30:26;;;;;;;3.00;2.20;;;;;;;;;;5026608;28;20444;-81
2021/05/17 13:32:55;;;;;;;4.10;2.60;;;;;;;;;;5050076;28;20512;-80
2021/05/17 13:35:23;;;;;;;3.70;2.30;;;;;;;;;;5049924;28;20465;-81
2021/05/17 13:37:50;;;;;;;2.83;2.47;;;;;;;;;;5049274;28;20510;-80
2021/05/17 13:40:17;;;;;;;3.50;2.50;;;;;;;;;;5050757;28;20523;-80
2021/05/17 13:42:44;;;;;;;2.67;2.40;;;;;;;;;;5051339;28;20793;-81
2021/05/17 13:45:13;;;;;;;3.53;2.23;;;;;;;;;;5051662;28;20444;-81
2021/05/17 13:47:40;;;;;;;3.40;2.33;;;;;;;;;;5034233;28;20762;-81
2021/05/17 13:50:09;;;;;;;3.40;2.47;;;;;;;;;;5040245;28;20416;-80
2021/05/17 13:52:36;;;;;;;2.40;1.90;;;;;;;;;;5039834;28;20845;-80
2021/05/17 13:55:04;;;;;;;5.10;2.27;;;;;;;;;;5033477;28;20469;-79
2021/05/17 13:57:31;;;;;;;6.80;2.33;;;;;;;;;;5012070;28;20416;-83
2021/05/17 13:59:58;;;;;;;4.83;3.37;;;;;;;;;;5045141;28;20424;-81
2021/05/17 14:02:24;;;;;;;4.57;3.50;;;;;;;;;;5050867;28;20432;-80
2021/05/17 14:04:52;;;;;;;9.33;3.77;;;;;;;;;;5051831;28;20465;-81
2021/05/17 14:07:19;;;;;;;6.70;3.90;;;;;;;;;;5052156;28;20487;-80
2021/05/17 14:09:47;;;;;;;4.50;3.73;;;;;;;;;;5051667;28;20445;-81
2021/05/17 14:12:14;;;;;;;4.83;3.70;;;;;;;;;;5044678;28;20504;-81
2021/05/17 14:14:41;;;;;;;5.33;4.30;;;;;;;;;;5042072;28;20467;-81
2021/05/17 14:17:09;;;;;;;9.73;4.60;;;;;;;;;;5051892;28;20469;-80
2021/05/17 14:19:37;;;;;;;8.67;4.03;;;;;;;;;;5052811;28;20907;-80
2021/05/17 14:22:04;;;;;;;7.03;3.73;;;;;;;;;;5052253;28;20962;-82
2021/05/17 14:24:32;;;;;;;4.67;3.30;;;;;;;;;;5035928;28;20989;-82
2021/05/17 14:27:00;;;;;;;3.40;2.90;;;;;;;;;;5054836;28;21076;-81
2021/05/17 14:29:26;;;;;;;3.90;2.70;;;;;;;;;;5017802;28;20475;-80
2021/05/17 14:31:53;;;;;;;4.27;3.17;;;;;;;;;;5036124;28;20452;-79
2021/05/17 14:34:20;;;;;;;9.37;2.97;;;;;;;;;;5022297;28;20505;-80
2021/05/17 14:36:47;;;;;;;4.07;2.80;;;;;;;;;;5044611;28;20412;-80
2021/05/17 14:39:14;;;;;;;8.33;3.10;;;;;;;;;;5051851;28;20420;-80
2021/05/17 14:41:42;;;;;;;5.90;2.80;;;;;;;;;;5051117;28;20958;-81
2021/05/17 14:44:09;;;;;;;7.70;3.10;;;;;;;;;;5051949;28;20442;-80
2021/05/17 14:46:36;;;;;;;6.57;2.47;;;;;;;;;;5052265;28;21187;-81
2021/05/17 14:49:04;;;;;;;3.03;2.63;;;;;;;;;;5040476;28;20418;-79
2021/05/17 14:51:31;;;;;;;6.37;2.90;;;;;;;;;;5035295;28;20430;-80
2021/05/17 14:53:58;;;;;;;5.93;3.23;;;;;;;;;;5032493;28;20456;-81
2021/05/17 14:56:25;;;;;;;7.07;2.80;;;;;;;;;;5042084;28;20451;-79
2021/05/17 14:58:51;;;;;;;5.43;2.90;;;;;;;;;;5052224;28;20428;-80
2021/05/17 15:01:19;;;;;;;8.07;3.03;;;;;;;;;;5053180;28;20495;-80
2021/05/17 15:03:46;;;;;;;4.60;2.73;;;;;;;;;;5054292;28;20546;-81
2021/05/17 15:06:13;;;;;;;3.57;2.73;;;;;;;;;;5053416;28;20445;-80
2021/05/17 15:08:40;;;;;;;3.77;2.70;;;;;;;;;;5053932;28;20415;-81
2021/05/17 15:11:17;;;;;;;3.43;2.43;;;;;;;;;;5025573;28;20431;-80
2021/05/17 15:13:44;;;;;;;6.00;2.90;;;;;;;;;;5042831;28;20849;-81
2021/05/17 15:16:11;;;;;;;5.97;2.77;;;;;;;;;;5038429;28;20420;-81
2021/05/17 15:18:39;;;;;;;5.10;3.07;;;;;;;;;;5035780;28;20447;-75
2021/05/17 15:21:06;;;;;;;6.23;3.47;;;;;;;;;;5052002;28;20455;-83
2021/05/17 15:23:34;;;;;;;6.70;3.17;;;;;;;;;;5048146;28;20449;-83
2021/05/17 15:26:01;;;;;;;7.63;3.00;;;;;;;;;;5053172;28;20483;-85
2021/05/17 15:28:29;;;;;;;4.00;2.57;;;;;;;;;;5047374;28;20420;-84
2021/05/17 15:30:56;;;;;;;5.30;3.07;;;;;;;;;;5053425;28;20415;-83
2021/05/17 15:33:23;;;;;;;5.10;2.70;;;;;;;;;;5044846;28;20451;-84
2021/05/17 15:35:51;;;;;;;6.33;3.80;;;;;;;;;;5039068;28;20458;-85
2021/05/17 15:38:18;;;;;;;5.63;2.90;;;;;;;;;;5050421;28;20427;-86
2021/05/17 15:40:45;;;;;;;6.63;3.23;;;;;;;;;;5051333;28;20471;-83
2021/05/17 15:43:13;;;;;;;8.23;3.17;;;;;;;;;;5046441;28;20412;-82
2021/05/17 15:45:40;;;;;;;6.20;2.63;;;;;;;;;;5048273;28;20483;-83
2021/05/17 15:48:07;;;;;;;7.40;3.77;;;;;;;;;;5042355;28;20416;-81
2021/05/17 15:50:35;;;;;;;6.97;3.00;;;;;;;;;;5053277;28;20412;-80
2021/05/17 15:53:04;;;;;;;7.73;3.60;;;;;;;;;;5052742;28;20477;-82
2021/05/17 15:55:31;;;;;;;6.30;3.20;;;;;;;;;;5049776;28;20458;-81
2021/05/17 15:57:58;;;;;;;6.10;3.40;;;;;;;;;;5038814;28;20428;-81
2021/05/17 16:00:25;;;;;;;8.60;3.67;;;;;;;;;;5047556;28;20424;-82
2021/05/17 16:02:52;;;;;;;7.20;3.40;;;;;;;;;;5050759;28;20416;-81
2021/05/17 16:05:20;;;;;;;7.33;3.87;;;;;;;;;;5050960;28;20514;-80